Providenciales International Airport (MBPV)
Providenciales, TC
Field Elevation: 28
Lat: 21°46.43N  Long: 72°16.12W
CTAF/Unicom Freq: 126.0000
   
    
Weather Advisories
4/24/2014 05:47 Z
Altimeter 29.96" Hg
Wind 040° @ 0 KT
Gusts --
Temperature 25° C (77° F)
Dewpoint 22° C (72° F)
Relative Humidity 83%
Density Altitude 1,100 feet
Condensation Altitude 1,700 feet
Precipitation 0.0" / 0.0" (hour/day)

  Wind and Runways
Indicated Runway = 10
tr>
History
 
 
More Info
All DigiWx sites map
 
NOAA Forecast
 
 
about DigiWx
  METAR MBPV 240547Z AUTO 04000KT 25/22 A2996